createdAt,value
2019-01-17T00:00:32.168Z,969.95
2019-01-17T00:01:32.109Z,969.92
2019-01-17T00:02:32.075Z,969.93
2019-01-17T00:03:32.033Z,969.94
2019-01-17T00:04:31.983Z,970.02
2019-01-17T00:05:32.043Z,970.13
2019-01-17T00:06:31.893Z,969.96
2019-01-17T00:07:31.926Z,969.93
2019-01-17T00:08:31.870Z,969.91
2019-01-17T00:09:31.774Z,969.88
2019-01-17T00:10:31.724Z,969.85
2019-01-17T00:11:31.690Z,969.90
2019-01-17T00:12:31.628Z,969.88
2019-01-17T00:13:31.577Z,969.85
2019-01-17T00:14:31.535Z,969.81
2019-01-17T00:15:31.511Z,969.93
2019-01-17T00:16:31.447Z,969.83
2019-01-17T00:17:31.466Z,969.78
2019-01-17T00:18:31.355Z,969.81
2019-01-17T00:19:31.373Z,969.74
2019-01-17T00:20:31.269Z,969.71
2019-01-17T00:21:31.246Z,969.69
2019-01-17T00:22:31.199Z,969.74
2019-01-17T00:23:31.144Z,969.69
2019-01-17T00:24:31.095Z,969.70
2019-01-17T00:25:31.066Z,969.66
2019-01-17T00:26:31.038Z,969.73
2019-01-17T00:27:31.018Z,969.58
2019-01-17T00:28:30.922Z,969.65
2019-01-17T00:29:30.892Z,969.64
2019-01-17T00:30:30.855Z,969.64
2019-01-17T00:31:30.814Z,969.65
2019-01-17T00:32:30.761Z,969.70
2019-01-17T00:33:30.715Z,969.66
2019-01-17T00:34:30.696Z,969.54
2019-01-17T00:35:30.643Z,969.52
2019-01-17T00:36:30.579Z,969.57
2019-01-17T00:37:30.556Z,969.56
2019-01-17T00:38:30.515Z,969.59
2019-01-17T00:39:30.471Z,969.66
2019-01-17T00:40:30.393Z,969.65
2019-01-17T00:41:30.355Z,969.53
2019-01-17T00:42:30.301Z,969.57
2019-01-17T00:43:30.271Z,969.67
2019-01-17T00:44:30.223Z,969.63
2019-01-17T00:45:30.187Z,969.62
2019-01-17T00:46:30.144Z,969.60
2019-01-17T00:47:30.086Z,969.62
2019-01-17T00:48:30.051Z,969.59
2019-01-17T00:49:30.005Z,969.59
2019-01-17T00:50:29.969Z,969.53
2019-01-17T00:51:29.937Z,969.54
2019-01-17T00:52:29.899Z,969.57
2019-01-17T00:53:29.826Z,969.52
2019-01-17T00:54:29.793Z,969.58
2019-01-17T00:55:29.747Z,969.56
2019-01-17T00:56:29.701Z,969.42
2019-01-17T00:57:29.675Z,969.56
2019-01-17T00:58:29.615Z,969.48
2019-01-17T00:59:29.568Z,969.63
2019-01-17T01:00:29.523Z,969.55
2019-01-17T01:01:29.501Z,969.46
2019-01-17T01:02:29.458Z,969.51
2019-01-17T01:03:29.409Z,969.48
2019-01-17T01:04:29.370Z,969.55
2019-01-17T01:05:29.296Z,969.51
2019-01-17T01:06:29.256Z,969.52
2019-01-17T01:07:29.213Z,969.52
2019-01-17T01:08:29.199Z,969.61
2019-01-17T01:09:29.127Z,969.56
2019-01-17T01:10:29.085Z,969.44
2019-01-17T01:11:29.059Z,969.50
2019-01-17T01:12:29.038Z,969.45
2019-01-17T01:13:28.954Z,969.48
2019-01-17T01:14:28.931Z,969.49
2019-01-17T01:15:28.859Z,969.51
2019-01-17T01:16:28.834Z,969.51
2019-01-17T01:17:28.778Z,969.50
2019-01-17T01:18:28.733Z,969.41
2019-01-17T01:19:28.689Z,969.48
2019-01-17T01:20:28.656Z,969.63
2019-01-17T01:21:28.607Z,969.65
2019-01-17T01:22:28.563Z,969.57
2019-01-17T01:23:28.514Z,969.65
2019-01-17T01:24:28.480Z,969.66
2019-01-17T01:25:28.458Z,969.57
2019-01-17T01:26:28.398Z,969.69
2019-01-17T01:27:28.345Z,969.68
2019-01-17T01:28:28.296Z,969.63
2019-01-17T01:29:28.252Z,969.69
2019-01-17T01:30:28.215Z,969.59
2019-01-17T01:31:28.197Z,969.67
2019-01-17T01:32:28.150Z,969.78
2019-01-17T01:33:28.076Z,969.68
2019-01-17T01:34:28.129Z,969.60
2019-01-17T01:35:28.000Z,969.65
2019-01-17T01:36:27.970Z,969.66
2019-01-17T01:37:27.908Z,969.67
2019-01-17T01:38:27.856Z,969.81
2019-01-17T01:39:27.823Z,969.74
2019-01-17T01:40:27.774Z,969.74
2019-01-17T01:41:27.735Z,969.83
2019-01-17T01:42:27.715Z,969.82
2019-01-17T01:43:27.641Z,969.87
2019-01-17T01:44:27.614Z,969.86
2019-01-17T01:45:27.564Z,969.96
2019-01-17T01:46:27.518Z,969.89
2019-01-17T01:47:27.476Z,969.92
2019-01-17T01:48:27.466Z,969.90
2019-01-17T01:49:27.389Z,969.94
2019-01-17T01:50:27.452Z,969.96
2019-01-17T01:51:27.306Z,970.01
2019-01-17T01:52:27.270Z,970.11
2019-01-17T01:53:27.259Z,970.13
2019-01-17T01:54:27.211Z,970.15
2019-01-17T01:55:27.142Z,970.14
2019-01-17T01:56:27.091Z,970.14
2019-01-17T01:57:27.041Z,970.13
2019-01-17T01:58:27.024Z,970.18
2019-01-17T01:59:26.970Z,970.10
2019-01-17T02:00:26.932Z,970.11
2019-01-17T02:01:26.865Z,970.17
2019-01-17T02:02:26.839Z,970.12
2019-01-17T02:03:26.794Z,969.97
2019-01-17T02:04:26.775Z,969.99
2019-01-17T02:05:26.715Z,970.07
2019-01-17T02:06:26.664Z,970.03
2019-01-17T02:07:26.612Z,969.98
2019-01-17T02:08:26.568Z,969.96
2019-01-17T02:09:26.576Z,969.96
2019-01-17T02:10:26.502Z,969.85
2019-01-17T02:11:26.477Z,970.07
2019-01-17T02:12:26.417Z,969.83
2019-01-17T02:13:26.363Z,969.93
2019-01-17T02:14:26.326Z,969.88
2019-01-17T02:15:26.270Z,969.81
2019-01-17T02:16:26.233Z,969.83
2019-01-17T02:17:26.193Z,969.67
2019-01-17T02:18:26.174Z,970.06
2019-01-17T02:19:26.116Z,969.93
2019-01-17T02:20:26.057Z,969.92
2019-01-17T02:21:26.028Z,969.79
2019-01-17T02:22:25.997Z,969.84
2019-01-17T02:23:25.954Z,969.82
2019-01-17T02:24:28.636Z,969.89
2019-01-17T02:25:25.864Z,969.93
2019-01-17T02:26:25.789Z,969.88
2019-01-17T02:27:25.783Z,969.81
2019-01-17T02:28:25.741Z,969.78
2019-01-17T02:29:25.682Z,969.80
2019-01-17T02:30:25.650Z,969.87
2019-01-17T02:31:25.598Z,969.82
2019-01-17T02:32:25.556Z,969.86
2019-01-17T02:33:25.565Z,969.74
2019-01-17T02:34:25.444Z,969.71
2019-01-17T02:35:25.415Z,969.85
2019-01-17T02:36:25.388Z,969.84
2019-01-17T02:37:25.338Z,969.98
2019-01-17T02:38:25.293Z,970.03
2019-01-17T02:39:25.236Z,969.91
2019-01-17T02:40:25.209Z,970.18
2019-01-17T02:41:25.163Z,970.03
2019-01-17T02:42:25.122Z,970.13
2019-01-17T02:43:25.076Z,970.09
2019-01-17T02:44:25.019Z,970.20
2019-01-17T02:45:24.998Z,970.18
2019-01-17T02:46:24.947Z,970.21
2019-01-17T02:47:24.912Z,970.25
2019-01-17T02:48:24.855Z,970.18
2019-01-17T02:49:24.817Z,970.17
2019-01-17T02:50:24.804Z,970.11
2019-01-17T02:51:24.727Z,970.10
2019-01-17T02:52:24.684Z,970.22
2019-01-17T02:53:24.641Z,970.14
2019-01-17T02:54:24.606Z,970.13
2019-01-17T02:55:24.576Z,970.14
2019-01-17T02:56:24.534Z,970.14
2019-01-17T02:57:24.482Z,970.11
2019-01-17T02:58:24.457Z,969.91
2019-01-17T02:59:24.378Z,969.89
2019-01-17T03:00:24.345Z,969.87
2019-01-17T03:01:24.293Z,969.90
2019-01-17T03:02:24.263Z,969.88
2019-01-17T03:03:24.222Z,969.78
2019-01-17T03:04:24.181Z,969.72
2019-01-17T03:05:24.119Z,969.69
2019-01-17T03:06:24.092Z,969.62
2019-01-17T03:07:24.028Z,969.65
2019-01-17T03:08:24.007Z,969.52
2019-01-17T03:09:23.955Z,969.59
2019-01-17T03:10:23.937Z,969.55
2019-01-17T03:11:23.890Z,969.50
2019-01-17T03:12:23.836Z,969.52
2019-01-17T03:13:23.786Z,969.57
2019-01-17T03:14:23.753Z,969.56
2019-01-17T03:15:23.696Z,969.53
2019-01-17T03:16:23.656Z,969.63
2019-01-17T03:17:23.613Z,969.63
2019-01-17T03:18:23.718Z,969.65
2019-01-17T03:19:23.522Z,969.64
2019-01-17T03:20:23.491Z,969.55
2019-01-17T03:21:23.447Z,969.56
2019-01-17T03:22:23.393Z,969.53
2019-01-17T03:23:23.380Z,969.54
2019-01-17T03:24:23.322Z,969.59
2019-01-17T03:25:23.279Z,969.49
2019-01-17T03:26:23.224Z,969.59
2019-01-17T03:27:23.277Z,969.60
2019-01-17T03:28:23.128Z,969.57
2019-01-17T03:29:23.094Z,969.60
2019-01-17T03:30:23.049Z,969.56
2019-01-17T03:31:22.998Z,969.54
2019-01-17T03:32:22.961Z,969.59
2019-01-17T03:33:22.935Z,969.61
2019-01-17T03:34:22.891Z,969.55
2019-01-17T03:35:22.836Z,969.59
2019-01-17T03:36:22.790Z,969.64
2019-01-17T03:37:22.754Z,969.64
2019-01-17T03:38:22.696Z,969.65
2019-01-17T03:39:22.657Z,969.61
2019-01-17T03:40:22.626Z,969.57
2019-01-17T03:41:22.591Z,969.55
2019-01-17T03:42:22.539Z,969.58
2019-01-17T03:43:22.489Z,969.56
2019-01-17T03:44:22.448Z,969.49
2019-01-17T03:45:22.401Z,969.53
2019-01-17T03:46:22.354Z,969.58
2019-01-17T03:47:22.316Z,969.56
2019-01-17T03:48:22.286Z,969.54
2019-01-17T03:49:22.248Z,969.51
2019-01-17T03:50:22.193Z,969.48
2019-01-17T03:51:22.154Z,969.45
2019-01-17T03:52:22.099Z,969.42
2019-01-17T03:53:22.069Z,969.45
2019-01-17T03:54:22.021Z,969.38
2019-01-17T03:55:21.966Z,969.39
2019-01-17T03:56:22.218Z,969.29
2019-01-17T03:57:21.938Z,969.32
2019-01-17T03:58:21.842Z,969.32
2019-01-17T03:59:21.803Z,969.37
2019-01-17T04:00:21.774Z,969.45
2019-01-17T04:01:21.732Z,969.40
2019-01-17T04:02:21.692Z,969.33
2019-01-17T04:03:21.640Z,969.40
2019-01-17T04:04:21.620Z,969.46
2019-01-17T04:05:21.560Z,969.51
2019-01-17T04:06:21.497Z,969.50
2019-01-17T04:07:21.465Z,969.49
2019-01-17T04:08:21.430Z,969.46
2019-01-17T04:09:21.376Z,969.52
2019-01-17T04:10:21.334Z,969.41
2019-01-17T04:11:21.322Z,969.45
2019-01-17T04:12:21.250Z,969.51
2019-01-17T04:13:21.248Z,969.55
2019-01-17T04:14:21.156Z,969.47
2019-01-17T04:15:21.119Z,969.53
2019-01-17T04:16:21.083Z,969.53
2019-01-17T04:17:21.037Z,969.61
2019-01-17T04:18:21.007Z,969.56
2019-01-17T04:19:20.986Z,969.66
2019-01-17T04:20:20.914Z,969.59
2019-01-17T04:21:20.859Z,969.55
2019-01-17T04:22:20.814Z,969.52
2019-01-17T04:23:20.787Z,969.52
2019-01-17T04:24:20.735Z,969.43
2019-01-17T04:25:20.707Z,969.50
2019-01-17T04:26:20.641Z,969.42
2019-01-17T04:27:20.612Z,969.45
2019-01-17T04:28:20.546Z,969.47
2019-01-17T04:29:20.570Z,969.50
2019-01-17T04:30:20.541Z,969.48
2019-01-17T04:31:20.458Z,969.48
2019-01-17T04:32:20.385Z,969.54
2019-01-17T04:33:20.356Z,969.58
2019-01-17T04:34:20.298Z,969.56
2019-01-17T04:35:20.269Z,969.56
2019-01-17T04:36:20.209Z,969.65
2019-01-17T04:37:20.185Z,969.58
2019-01-17T04:38:20.136Z,969.64
2019-01-17T04:39:20.085Z,969.56
2019-01-17T04:40:20.030Z,969.60
2019-01-17T04:41:20.017Z,969.68
2019-01-17T04:42:19.976Z,969.62
2019-01-17T04:43:19.913Z,969.65
2019-01-17T04:44:19.880Z,969.64
2019-01-17T04:45:19.853Z,969.64
2019-01-17T04:46:19.793Z,969.62
2019-01-17T04:47:19.741Z,969.63
2019-01-17T04:48:19.711Z,969.74
2019-01-17T04:49:19.657Z,969.67
2019-01-17T04:50:19.688Z,969.73
2019-01-17T04:51:19.590Z,969.74
2019-01-17T04:52:19.545Z,969.75
2019-01-17T04:53:19.514Z,969.69
2019-01-17T04:54:19.464Z,969.76
2019-01-17T04:55:19.398Z,969.59
2019-01-17T04:56:19.373Z,969.66
2019-01-17T04:57:19.307Z,969.67
2019-01-17T04:58:19.257Z,969.76
2019-01-17T04:59:19.218Z,969.78
2019-01-17T05:00:19.181Z,969.77
2019-01-17T05:01:19.139Z,969.83
2019-01-17T05:02:19.117Z,969.77
2019-01-17T05:03:19.150Z,969.78
2019-01-17T05:04:19.058Z,969.84
2019-01-17T05:05:18.962Z,969.89
2019-01-17T05:06:18.954Z,969.97
2019-01-17T05:07:18.893Z,969.97
2019-01-17T05:08:18.902Z,969.88
2019-01-17T05:09:18.804Z,969.91
2019-01-17T05:10:18.824Z,969.99
2019-01-17T05:11:18.707Z,970.00
2019-01-17T05:12:18.693Z,969.97
2019-01-17T05:13:18.645Z,970.01
2019-01-17T05:14:18.589Z,970.02
2019-01-17T05:15:18.536Z,970.08
2019-01-17T05:16:18.530Z,970.04
2019-01-17T05:17:18.460Z,970.09
2019-01-17T05:18:18.439Z,970.01
2019-01-17T05:19:18.361Z,970.15
2019-01-17T05:20:18.327Z,970.03
2019-01-17T05:21:18.274Z,970.06
2019-01-17T05:22:18.274Z,970.06
2019-01-17T05:23:18.186Z,970.05
2019-01-17T05:24:18.154Z,969.99
2019-01-17T05:25:18.103Z,970.05
2019-01-17T05:26:18.103Z,970.08
2019-01-17T05:27:18.045Z,970.01
2019-01-17T05:28:18.023Z,969.97
2019-01-17T05:29:17.942Z,970.02
2019-01-17T05:30:17.891Z,970.06
2019-01-17T05:31:17.867Z,970.03
2019-01-17T05:32:17.795Z,970.02
2019-01-17T05:33:17.787Z,970.07
2019-01-17T05:34:17.707Z,970.12
2019-01-17T05:35:17.683Z,970.13
2019-01-17T05:36:17.632Z,970.17
2019-01-17T05:37:17.601Z,970.26
2019-01-17T05:38:17.535Z,970.23
2019-01-17T05:39:17.520Z,970.21
2019-01-17T05:40:17.457Z,970.22
2019-01-17T05:41:17.431Z,970.25
2019-01-17T05:42:17.365Z,970.23
2019-01-17T05:43:17.344Z,970.23
2019-01-17T05:44:17.299Z,970.21
2019-01-17T05:45:17.232Z,970.21
2019-01-17T05:46:17.190Z,970.26
2019-01-17T05:47:17.160Z,970.25
2019-01-17T05:48:17.119Z,970.30
2019-01-17T05:49:17.081Z,970.30
2019-01-17T05:50:17.017Z,970.24
2019-01-17T05:51:17.029Z,970.26
2019-01-17T05:52:16.933Z,970.29
2019-01-17T05:53:16.930Z,970.25
2019-01-17T05:54:18.018Z,970.23
2019-01-17T05:55:20.116Z,970.21
2019-01-17T05:56:16.833Z,970.13
2019-01-17T05:57:16.728Z,970.13
2019-01-17T05:58:16.717Z,970.20
2019-01-17T05:59:16.646Z,970.19
2019-01-17T06:00:16.628Z,970.16
2019-01-17T06:01:16.560Z,970.14
2019-01-17T06:02:16.514Z,970.19
2019-01-17T06:03:16.490Z,970.13
2019-01-17T06:04:16.414Z,970.22
2019-01-17T06:05:16.374Z,970.19
2019-01-17T06:06:16.320Z,970.11
2019-01-17T06:07:16.310Z,970.15
2019-01-17T06:08:16.276Z,970.13
2019-01-17T06:09:16.203Z,970.17
2019-01-17T06:10:16.177Z,970.18
2019-01-17T06:11:16.112Z,970.19
2019-01-17T06:12:16.107Z,970.18
2019-01-17T06:13:16.041Z,970.13
2019-01-17T06:14:16.012Z,970.18
2019-01-17T06:15:15.945Z,970.20
2019-01-17T06:16:15.910Z,970.25
2019-01-17T06:17:15.891Z,970.19
2019-01-17T06:18:15.821Z,970.18
2019-01-17T06:19:15.780Z,970.17
2019-01-17T06:20:15.759Z,970.13
2019-01-17T06:21:15.697Z,970.12
2019-01-17T06:22:15.645Z,970.13
2019-01-17T06:23:15.646Z,970.09
2019-01-17T06:24:15.589Z,970.11
2019-01-17T06:25:15.566Z,970.15
2019-01-17T06:26:15.478Z,970.14
2019-01-17T06:27:15.441Z,970.12
2019-01-17T06:28:15.418Z,970.08
2019-01-17T06:29:15.335Z,970.11
2019-01-17T06:30:15.305Z,970.09
2019-01-17T06:31:15.267Z,970.08
2019-01-17T06:32:15.251Z,970.08
2019-01-17T06:33:15.172Z,970.04
2019-01-17T06:34:15.138Z,970.06
2019-01-17T06:35:15.118Z,970.03
2019-01-17T06:36:15.057Z,970.09
2019-01-17T06:37:15.011Z,970.05
2019-01-17T06:38:14.991Z,970.05
2019-01-17T06:39:14.922Z,970.10
2019-01-17T06:40:14.904Z,970.10
2019-01-17T06:41:14.856Z,970.07
2019-01-17T06:42:14.805Z,970.14
2019-01-17T06:43:14.765Z,970.16
2019-01-17T06:44:20.120Z,970.16
2019-01-17T06:45:14.681Z,970.18
2019-01-17T06:46:14.622Z,970.14
2019-01-17T06:47:14.610Z,970.16
2019-01-17T06:48:14.546Z,970.19
2019-01-17T06:49:14.499Z,970.19
2019-01-17T06:50:14.437Z,970.16
2019-01-17T06:51:14.404Z,970.14
2019-01-17T06:52:14.356Z,970.20
2019-01-17T06:53:14.332Z,970.11
2019-01-17T06:54:14.281Z,970.13
2019-01-17T06:55:14.236Z,970.14
2019-01-17T06:56:14.191Z,970.12
2019-01-17T06:57:14.163Z,970.10
2019-01-17T06:58:14.087Z,970.13
2019-01-17T06:59:14.058Z,970.07
2019-01-17T07:00:14.034Z,970.07
2019-01-17T07:01:13.984Z,970.10
2019-01-17T07:02:13.926Z,970.10
2019-01-17T07:03:13.915Z,970.13
2019-01-17T07:04:13.842Z,970.09
2019-01-17T07:05:13.813Z,970.15
2019-01-17T07:06:13.783Z,970.15
2019-01-17T07:07:13.728Z,970.14
2019-01-17T07:08:13.688Z,970.13
2019-01-17T07:09:13.654Z,970.13
2019-01-17T07:10:13.590Z,970.15
2019-01-17T07:11:13.545Z,970.09
2019-01-17T07:12:13.514Z,970.12
2019-01-17T07:13:13.472Z,970.09
2019-01-17T07:14:13.440Z,970.14
2019-01-17T07:15:13.371Z,970.18
2019-01-17T07:16:13.345Z,970.15
2019-01-17T07:17:13.290Z,970.15
2019-01-17T07:18:13.330Z,970.14
2019-01-17T07:19:13.229Z,970.12
2019-01-17T07:20:13.154Z,970.15
2019-01-17T07:21:13.132Z,970.14
2019-01-17T07:22:13.073Z,970.17
2019-01-17T07:23:13.034Z,970.15
2019-01-17T07:24:12.988Z,970.19
2019-01-17T07:25:12.953Z,970.15
2019-01-17T07:26:12.917Z,970.16
2019-01-17T07:27:12.855Z,970.14
2019-01-17T07:28:12.822Z,970.12
2019-01-17T07:29:12.775Z,970.14
2019-01-17T07:30:12.757Z,970.12
2019-01-17T07:31:12.689Z,970.13
2019-01-17T07:32:12.645Z,970.15
2019-01-17T07:33:12.610Z,970.13
2019-01-17T07:34:12.567Z,970.17
2019-01-17T07:35:12.524Z,970.15
2019-01-17T07:36:12.483Z,970.13
2019-01-17T07:37:12.439Z,970.18
2019-01-17T07:38:12.388Z,970.18
2019-01-17T07:39:12.344Z,970.19
2019-01-17T07:40:12.322Z,970.13
2019-01-17T07:41:12.299Z,970.20
2019-01-17T07:42:12.259Z,970.21
2019-01-17T07:43:12.179Z,970.19
2019-01-17T07:44:12.165Z,970.19
2019-01-17T07:45:12.111Z,970.21
2019-01-17T07:46:12.066Z,970.19
2019-01-17T07:47:12.026Z,970.19
2019-01-17T07:48:11.968Z,970.23
2019-01-17T07:49:11.970Z,970.15
2019-01-17T07:50:11.894Z,970.19
2019-01-17T07:51:11.826Z,970.25
2019-01-17T07:52:11.808Z,970.27
2019-01-17T07:53:11.770Z,970.21
2019-01-17T07:54:11.709Z,970.30
2019-01-17T07:55:11.661Z,970.27
2019-01-17T07:56:11.638Z,970.29
2019-01-17T07:57:11.571Z,970.31
2019-01-17T07:58:11.541Z,970.25
2019-01-17T07:59:11.503Z,970.23
2019-01-17T08:00:11.457Z,970.25
2019-01-17T08:01:14.964Z,970.25
2019-01-17T08:02:11.353Z,970.25
2019-01-17T08:03:11.357Z,970.28
2019-01-17T08:04:12.509Z,970.22
2019-01-17T08:05:11.222Z,970.25
2019-01-17T08:06:11.203Z,970.25
2019-01-17T08:07:11.144Z,970.23
2019-01-17T08:08:11.114Z,970.25
2019-01-17T08:09:11.071Z,970.25
2019-01-17T08:10:11.046Z,970.27
2019-01-17T08:11:10.982Z,970.27
2019-01-17T08:12:10.930Z,970.28
2019-01-17T08:13:10.911Z,970.29
2019-01-17T08:14:10.862Z,970.31
2019-01-17T08:15:10.804Z,970.28
2019-01-17T08:16:10.796Z,970.28
2019-01-17T08:17:10.739Z,970.23
2019-01-17T08:18:10.703Z,970.19
2019-01-17T08:19:10.648Z,970.19
2019-01-17T08:20:10.615Z,970.18
2019-01-17T08:21:10.548Z,970.20
2019-01-17T08:22:10.502Z,970.21
2019-01-17T08:23:10.485Z,970.26
2019-01-17T08:24:10.439Z,970.32
2019-01-17T08:25:10.388Z,970.29
2019-01-17T08:26:10.409Z,970.30
2019-01-17T08:27:10.282Z,970.26
2019-01-17T08:28:10.248Z,970.27
2019-01-17T08:29:10.211Z,970.27
2019-01-17T08:30:10.179Z,970.24
2019-01-17T08:31:10.131Z,970.27
2019-01-17T08:32:10.150Z,970.27
2019-01-17T08:33:10.031Z,970.22
2019-01-17T08:34:10.021Z,970.23
2019-01-17T08:35:10.449Z,970.26
2019-01-17T08:36:09.916Z,970.30
2019-01-17T08:37:09.861Z,970.22
2019-01-17T08:38:09.837Z,970.24
2019-01-17T08:39:09.783Z,970.23
2019-01-17T08:40:09.752Z,970.20
2019-01-17T08:41:09.724Z,970.21
2019-01-17T08:42:09.651Z,970.20
2019-01-17T08:43:09.594Z,970.17
2019-01-17T08:44:09.573Z,970.20
2019-01-17T08:45:09.512Z,970.22
2019-01-17T08:46:09.478Z,970.22
2019-01-17T08:47:09.447Z,970.24
2019-01-17T08:48:09.395Z,970.23
2019-01-17T08:49:09.381Z,970.27
2019-01-17T08:50:09.323Z,970.24
2019-01-17T08:51:09.267Z,970.26
2019-01-17T08:52:09.236Z,970.24
2019-01-17T08:53:09.203Z,970.24
2019-01-17T08:54:09.150Z,970.22
2019-01-17T08:55:09.102Z,970.23
2019-01-17T08:56:09.074Z,970.26
2019-01-17T08:57:09.012Z,970.20
2019-01-17T08:58:08.974Z,970.24
2019-01-17T08:59:08.932Z,970.21
2019-01-17T09:00:08.888Z,970.22
2019-01-17T09:01:08.858Z,970.19
2019-01-17T09:02:08.792Z,970.18
2019-01-17T09:03:08.780Z,970.20
2019-01-17T09:04:08.700Z,970.16
2019-01-17T09:05:08.691Z,970.21
2019-01-17T09:06:08.624Z,970.13
2019-01-17T09:07:08.617Z,970.13
2019-01-17T09:08:08.536Z,970.12
2019-01-17T09:09:08.512Z,970.14
2019-01-17T09:10:08.449Z,970.12
2019-01-17T09:11:08.440Z,970.12
2019-01-17T09:12:08.396Z,970.16
2019-01-17T09:13:08.343Z,970.24
2019-01-17T09:14:08.293Z,970.24
2019-01-17T09:15:08.243Z,970.23
2019-01-17T09:16:08.219Z,970.19
2019-01-17T09:17:08.187Z,970.24
2019-01-17T09:18:08.132Z,970.21
2019-01-17T09:19:08.101Z,970.20
2019-01-17T09:20:08.054Z,970.21
2019-01-17T09:21:07.992Z,970.24
2019-01-17T09:22:07.960Z,970.17
2019-01-17T09:23:07.909Z,970.16
2019-01-17T09:24:07.924Z,970.18
2019-01-17T09:25:07.837Z,970.11
2019-01-17T09:26:07.892Z,970.13
2019-01-17T09:27:07.735Z,970.11
2019-01-17T09:28:07.717Z,970.08
2019-01-17T09:29:07.649Z,970.05
2019-01-17T09:30:07.628Z,970.01
2019-01-17T09:31:07.587Z,970.03
2019-01-17T09:32:07.610Z,970.06
2019-01-17T09:33:07.497Z,970.10
2019-01-17T09:34:07.446Z,970.10
2019-01-17T09:35:07.420Z,970.10
2019-01-17T09:36:07.356Z,970.08
2019-01-17T09:37:07.346Z,970.06
2019-01-17T09:38:07.282Z,970.03
2019-01-17T09:39:07.285Z,970.09
2019-01-17T09:40:07.214Z,970.08
2019-01-17T09:41:07.144Z,970.10
2019-01-17T09:42:07.106Z,970.10
2019-01-17T09:43:07.083Z,970.15
2019-01-17T09:44:07.014Z,970.15
2019-01-17T09:45:06.982Z,970.21
2019-01-17T09:46:06.975Z,970.19
2019-01-17T09:47:06.927Z,970.23
2019-01-17T09:48:06.860Z,970.24
2019-01-17T09:49:06.807Z,970.22
2019-01-17T09:50:06.765Z,970.16
2019-01-17T09:51:06.740Z,970.19
2019-01-17T09:52:06.689Z,970.25
2019-01-17T09:53:06.649Z,970.25
2019-01-17T09:54:06.610Z,970.18
2019-01-17T09:55:06.578Z,970.14
2019-01-17T09:56:06.529Z,970.17
2019-01-17T09:57:06.494Z,970.20
2019-01-17T09:58:06.436Z,970.15
2019-01-17T09:59:06.398Z,970.16
2019-01-17T10:00:06.351Z,970.13
2019-01-17T10:01:06.324Z,970.12
2019-01-17T10:02:06.274Z,970.10
2019-01-17T10:03:06.256Z,970.13
2019-01-17T10:04:06.173Z,970.10
2019-01-17T10:05:06.143Z,970.06
2019-01-17T10:06:06.107Z,970.00
2019-01-17T10:07:06.058Z,969.94
2019-01-17T10:08:06.030Z,969.97
2019-01-17T10:09:06.010Z,969.82
2019-01-17T10:10:05.925Z,969.88
2019-01-17T10:11:05.889Z,969.95
2019-01-17T10:12:05.848Z,970.04
2019-01-17T10:13:05.837Z,970.01
2019-01-17T10:14:05.771Z,969.99
2019-01-17T10:15:05.733Z,970.00
2019-01-17T10:16:05.692Z,970.01
2019-01-17T10:17:05.643Z,970.03
2019-01-17T10:18:05.629Z,970.07
2019-01-17T10:19:05.556Z,970.16
2019-01-17T10:20:06.011Z,970.11
2019-01-17T10:21:05.470Z,970.10
2019-01-17T10:22:05.446Z,970.07
2019-01-17T10:23:05.424Z,970.10
2019-01-17T10:24:05.340Z,970.11
2019-01-17T10:25:05.310Z,970.12
2019-01-17T10:26:05.257Z,970.13
2019-01-17T10:27:05.220Z,970.13
2019-01-17T10:28:05.181Z,970.04
2019-01-17T10:29:05.133Z,970.11
2019-01-17T10:30:05.085Z,970.13
2019-01-17T10:31:05.095Z,970.09
2019-01-17T10:32:05.030Z,970.05
2019-01-17T10:33:04.986Z,970.08
2019-01-17T10:34:04.932Z,970.02
2019-01-17T10:35:04.938Z,970.10
2019-01-17T10:36:04.849Z,970.09
2019-01-17T10:37:04.835Z,970.07
2019-01-17T10:38:04.768Z,970.10
2019-01-17T10:39:04.748Z,970.07
2019-01-17T10:40:04.680Z,970.04
2019-01-17T10:41:04.642Z,969.95
2019-01-17T10:42:04.605Z,969.93
2019-01-17T10:43:04.580Z,969.88
2019-01-17T10:44:04.530Z,969.86
2019-01-17T10:45:04.498Z,969.84
2019-01-17T10:46:04.442Z,969.83
2019-01-17T10:47:04.418Z,969.79
2019-01-17T10:48:04.351Z,969.80
2019-01-17T10:49:04.402Z,969.81
2019-01-17T10:50:04.291Z,969.74
2019-01-17T10:51:04.281Z,969.71
2019-01-17T10:52:04.213Z,969.71
2019-01-17T10:53:04.161Z,969.68
2019-01-17T10:54:04.118Z,969.69
2019-01-17T10:55:04.078Z,969.70
2019-01-17T10:56:04.020Z,969.71
2019-01-17T10:57:04.002Z,969.71
2019-01-17T10:58:03.958Z,969.70
2019-01-17T10:59:03.935Z,969.66
2019-01-17T11:00:03.857Z,969.68
2019-01-17T11:01:03.844Z,969.61
2019-01-17T11:02:03.797Z,969.62
2019-01-17T11:03:03.746Z,969.61
2019-01-17T11:04:03.737Z,969.66
2019-01-17T11:05:03.694Z,969.63
2019-01-17T11:06:03.634Z,969.59
2019-01-17T11:07:03.609Z,969.70
2019-01-17T11:08:03.553Z,969.72
2019-01-17T11:09:03.529Z,969.70
2019-01-17T11:10:03.449Z,969.69
2019-01-17T11:11:03.430Z,969.71
2019-01-17T11:12:03.376Z,969.70
2019-01-17T11:13:03.368Z,969.68
2019-01-17T11:14:03.283Z,969.68
2019-01-17T11:15:03.258Z,969.63
2019-01-17T11:16:03.193Z,969.61
2019-01-17T11:17:03.161Z,969.55
2019-01-17T11:18:03.131Z,969.54
2019-01-17T11:19:03.114Z,969.52
2019-01-17T11:20:03.039Z,969.50
2019-01-17T11:21:02.994Z,969.50
2019-01-17T11:22:02.990Z,969.50
2019-01-17T11:23:02.952Z,969.52
2019-01-17T11:24:02.903Z,969.53
2019-01-17T11:25:02.865Z,969.53
2019-01-17T11:26:02.792Z,969.58
2019-01-17T11:27:02.747Z,969.53
2019-01-17T11:28:02.744Z,969.54
2019-01-17T11:29:02.696Z,969.52
2019-01-17T11:30:02.667Z,969.50
2019-01-17T11:31:02.572Z,969.52
2019-01-17T11:32:02.551Z,969.50
2019-01-17T11:33:02.506Z,969.53
2019-01-17T11:34:02.467Z,969.56
2019-01-17T11:35:02.412Z,969.57
2019-01-17T11:36:02.379Z,969.51
2019-01-17T11:37:02.324Z,969.44
2019-01-17T11:38:02.330Z,969.42
2019-01-17T11:39:02.312Z,969.40
2019-01-17T11:40:02.283Z,969.42
2019-01-17T11:41:02.188Z,969.44
2019-01-17T11:42:02.160Z,969.43
2019-01-17T11:43:02.078Z,969.43
2019-01-17T11:44:02.037Z,969.44
2019-01-17T11:45:02.000Z,969.46
2019-01-17T11:46:01.954Z,969.46
2019-01-17T11:47:01.915Z,969.47
2019-01-17T11:48:01.877Z,969.42
2019-01-17T11:49:01.826Z,969.41
2019-01-17T11:50:01.906Z,969.43
2019-01-17T11:51:01.753Z,969.41
2019-01-17T11:52:01.702Z,969.37
2019-01-17T11:53:01.671Z,969.39
2019-01-17T11:54:01.634Z,969.33
2019-01-17T11:55:01.601Z,969.28
2019-01-17T11:56:01.544Z,969.30
2019-01-17T11:57:01.516Z,969.28
2019-01-17T11:58:01.492Z,969.25
2019-01-17T11:59:01.435Z,969.22
2019-01-17T12:00:01.394Z,969.21
2019-01-17T12:01:01.343Z,969.22
2019-01-17T12:02:01.333Z,969.18
2019-01-17T12:03:01.303Z,969.20
2019-01-17T12:04:01.260Z,969.21
2019-01-17T12:05:01.187Z,969.22
2019-01-17T12:06:01.153Z,969.22
2019-01-17T12:07:01.095Z,969.18
2019-01-17T12:08:01.075Z,969.21
2019-01-17T12:09:01.026Z,969.22
2019-01-17T12:10:01.041Z,969.27
2019-01-17T12:11:00.943Z,969.26
2019-01-17T12:12:00.905Z,969.26
2019-01-17T12:13:00.860Z,969.17
2019-01-17T12:14:00.822Z,969.12
2019-01-17T12:15:00.773Z,969.15
2019-01-17T12:16:00.744Z,969.13
2019-01-17T12:17:00.716Z,969.13
2019-01-17T12:18:00.658Z,969.14
2019-01-17T12:19:00.634Z,969.14
2019-01-17T12:20:00.581Z,969.12
2019-01-17T12:21:00.571Z,969.16
2019-01-17T12:22:00.515Z,969.14
2019-01-17T12:23:00.478Z,969.14
2019-01-17T12:24:00.476Z,969.13
2019-01-17T12:25:00.382Z,969.09
2019-01-17T12:26:00.360Z,969.01
2019-01-17T12:27:00.379Z,969.13
2019-01-17T12:28:00.309Z,969.02